Punta Salinas — EABF — position and weather

sailwx.info

Track history (hours):
 
Tides and Currents Weather Stations Pressure Air Temp Water Temp Dewpoint Dewpoint Depression Visibility Wind Speed Wind Dir Waves Ship Positions

Punta Salinas

Last reported at 2015-Jul-04 13:30 UTC. Time now 2015-Jul-04 13:40 UTC.
Position N 28°09' W 015°24'.

; draft 5 m.

Type: SAR. MMSI: 224522000.

Date/timePositionNaut miles runAvg speedWind from/ knotsBaromVisibWave heightAir tempDewpointWater temp
2015-Jul-04 13:30N 28°09' W 015°24'0 0.0
2015-Jul-04 12:30N 28°09' W 015°24'0 0.0
2015-Jul-04 11:30N 28°09' W 015°24'0 0.0
2015-Jul-04 10:30N 28°09' W 015°24'0 0.0
2015-Jul-04 09:22N 28°09' W 015°24'0 0.0
2015-Jul-04 08:30N 28°09' W 015°24'0 0.0
2015-Jul-04 07:30N 28°09' W 015°24'0 0.0
2015-Jul-04 06:28N 28°09' W 015°24'0 0.0
2015-Jul-04 05:28N 28°09' W 015°24'0 0.0
2015-Jul-04 04:28N 28°09' W 015°24'0 0.0
2015-Jul-04 03:28N 28°09' W 015°24'0 0.0
2015-Jul-04 02:28N 28°09' W 015°24'0 0.0
2015-Jul-04 01:27N 28°09' W 015°24'0 0.0
2015-Jul-04 00:30N 28°09' W 015°24'0 0.0
2015-Jul-03 23:33N 28°09' W 015°24'0 0.0
2015-Jul-03 22:33N 28°09' W 015°24'0 0.0
2015-Jul-03 21:30N 28°09' W 015°24'0 0.0
2015-Jul-03 20:33N 28°09' W 015°24'0 0.0
2015-Jul-03 19:33N 28°09' W 015°24'0 0.0
2015-Jul-03 18:33N 28°09' W 015°24'0 0.0
2015-Jul-03 17:33N 28°09' W 015°24'0 0.0
2015-Jul-03 16:21N 28°09' W 015°24'0 0.0
2015-Jul-03 15:27N 28°09' W 015°24'0 0.0
2015-Jul-03 14:27N 28°09' W 015°24'0 0.0
2015-Jul-03 13:27N 28°09' W 015°24'0 0.0
2015-Jul-03 12:27N 28°09' W 015°24'0 0.0
2015-Jul-03 11:27N 28°09' W 015°24'0 0.0
2015-Jul-03 10:27N 28°09' W 015°24'0 0.0
2015-Jul-03 09:33N 28°09' W 015°24'0 0.0
2015-Jul-03 08:33N 28°09' W 015°24'0 0.0
2015-Jul-03 07:33N 28°09' W 015°24'0 0.0
2015-Jul-03 06:33N 28°09' W 015°24'0 0.0
2015-Jul-03 05:33N 28°09' W 015°24'0 0.0
2015-Jul-03 04:33N 28°09' W 015°24'0 0.0
2015-Jul-03 03:33N 28°09' W 015°24'0 0.0
2015-Jul-03 02:21N 28°09' W 015°24'0 0.0
2015-Jul-03 01:27N 28°09' W 015°24'0 0.0
2015-Jul-03 00:27N 28°09' W 015°24'0 0.0
2015-Jul-02 23:27N 28°09' W 015°24'0 0.0
2015-Jul-02 22:27N 28°09' W 015°24'0 0.0
2015-Jul-02 21:27N 28°09' W 015°24'1 0.8
2015-Jul-02 20:33N 28°09' W 015°24'10 9.6
2015-Jul-02 19:33N 27°60' W 015°20'8 0.7
2015-Jul-02 09:07N 27°52' W 015°20'611.4
2015-Jul-02 08:33N 27°58' W 015°19'1110.6
2015-Jul-02 07:33N 28°08' W 015°23'1 1.3
2015-Jul-02 06:27N 28°09' W 015°24'0 0.0
2015-Jul-02 05:30N 28°09' W 015°24'0 0.0
2015-Jul-02 04:33N 28°09' W 015°24'0 0.0
2015-Jul-02 03:33N 28°09' W 015°24'0 0.0
2015-Jul-02 02:33N 28°09' W 015°24'0 0.0
2015-Jul-02 01:33N 28°09' W 015°24'0 0.0
2015-Jul-02 00:33N 28°09' W 015°24'0 0.0
2015-Jul-01 23:33N 28°09' W 015°24'0 0.0
2015-Jul-01 22:33N 28°09' W 015°24'0 0.0
2015-Jul-01 21:18N 28°09' W 015°24'0 0.0
2015-Jul-01 20:24N 28°09' W 015°24'0 0.0
2015-Jul-01 19:27N 28°09' W 015°24'0 0.0
2015-Jul-01 18:27N 28°09' W 015°24'0 0.0
2015-Jul-01 17:27N 28°09' W 015°24'0 0.0
2015-Jul-01 16:27N 28°09' W 015°24'0 0.0
2015-Jul-01 15:27N 28°09' W 015°24'0 0.0
2015-Jul-01 14:33N 28°09' W 015°24'0 0.0
2015-Jul-01 13:33N 28°09' W 015°24'0 0.0
2015-Jul-01 12:33N 28°09' W 015°24'0 0.0
2015-Jul-01 11:30N 28°09' W 015°24'0 0.0
2015-Jul-01 10:33N 28°09' W 015°24'0 0.0
2015-Jul-01 09:33N 28°09' W 015°24'0 0.0
2015-Jul-01 08:33N 28°09' W 015°24'0 0.0
2015-Jul-01 07:24N 28°09' W 015°24'0 0.0
2015-Jul-01 06:27N 28°09' W 015°24'0 0.0
2015-Jul-01 05:27N 28°09' W 015°24'0 0.0
2015-Jul-01 04:27N 28°09' W 015°24'0 0.0
2015-Jul-01 03:27N 28°09' W 015°24'0 0.0
2015-Jul-01 02:27N 28°09' W 015°24'0 0.0
2015-Jul-01 01:30N 28°09' W 015°24'0 0.0
2015-Jul-01 00:33N 28°09' W 015°24'0 0.0
2015-Jun-30 23:33N 28°09' W 015°24'0 0.0
2015-Jun-30 22:18N 28°09' W 015°24'0 0.0
2015-Jun-30 21:33N 28°09' W 015°24'0 0.0
2015-Jun-30 20:33N 28°09' W 015°24'0 0.0
2015-Jun-30 19:33N 28°09' W 015°24'0 0.0
2015-Jun-30 18:33N 28°09' W 015°24'0 0.0
2015-Jun-30 17:33N 28°09' W 015°24'0 0.0
2015-Jun-30 16:27N 28°09' W 015°24'0 0.0
2015-Jun-30 15:27N 28°09' W 015°24'0 0.0
2015-Jun-30 14:33N 28°09' W 015°24'1 1.5
2015-Jun-30 13:33N 28°08' W 015°23'8 7.9
2015-Jun-30 12:33N 28°00' W 015°20'  
2015-Jun-26 12:33N 27°54' W 015°21'  
Track history (hours):
 
Tides and Currents Weather Stations Pressure Air Temp Water Temp Dewpoint Dewpoint Depression Visibility Wind Speed Wind Dir Waves Ship Positions

Punta Salinas

Last reported at 2015-Jul-04 13:30 UTC. Time now 2015-Jul-04 13:40 UTC.
Position N 28°09' W 015°24'.

; draft 5 m.

Type: SAR. MMSI: 224522000.

Date/timePositionNaut miles runAvg speedWind from/ knotsBaromVisibWave heightAir tempDewpointWater temp
2015-Jul-04 13:30N 28°09' W 015°24'0 0.0
2015-Jul-04 12:30N 28°09' W 015°24'0 0.0
2015-Jul-04 11:30N 28°09' W 015°24'0 0.0
2015-Jul-04 10:30N 28°09' W 015°24'0 0.0
2015-Jul-04 09:22N 28°09' W 015°24'0 0.0
2015-Jul-04 08:30N 28°09' W 015°24'0 0.0
2015-Jul-04 07:30N 28°09' W 015°24'0 0.0
2015-Jul-04 06:28N 28°09' W 015°24'0 0.0
2015-Jul-04 05:28N 28°09' W 015°24'0 0.0
2015-Jul-04 04:28N 28°09' W 015°24'0 0.0
2015-Jul-04 03:28N 28°09' W 015°24'0 0.0
2015-Jul-04 02:28N 28°09' W 015°24'0 0.0
2015-Jul-04 01:27N 28°09' W 015°24'0 0.0
2015-Jul-04 00:30N 28°09' W 015°24'0 0.0
2015-Jul-03 23:33N 28°09' W 015°24'0 0.0
2015-Jul-03 22:33N 28°09' W 015°24'0 0.0
2015-Jul-03 21:30N 28°09' W 015°24'0 0.0
2015-Jul-03 20:33N 28°09' W 015°24'0 0.0
2015-Jul-03 19:33N 28°09' W 015°24'0 0.0
2015-Jul-03 18:33N 28°09' W 015°24'0 0.0
2015-Jul-03 17:33N 28°09' W 015°24'0 0.0
2015-Jul-03 16:21N 28°09' W 015°24'0 0.0
2015-Jul-03 15:27N 28°09' W 015°24'0 0.0
2015-Jul-03 14:27N 28°09' W 015°24'0 0.0
2015-Jul-03 13:27N 28°09' W 015°24'0 0.0
2015-Jul-03 12:27N 28°09' W 015°24'0 0.0
2015-Jul-03 11:27N 28°09' W 015°24'0 0.0
2015-Jul-03 10:27N 28°09' W 015°24'0 0.0
2015-Jul-03 09:33N 28°09' W 015°24'0 0.0
2015-Jul-03 08:33N 28°09' W 015°24'0 0.0
2015-Jul-03 07:33N 28°09' W 015°24'0 0.0
2015-Jul-03 06:33N 28°09' W 015°24'0 0.0
2015-Jul-03 05:33N 28°09' W 015°24'0 0.0
2015-Jul-03 04:33N 28°09' W 015°24'0 0.0
2015-Jul-03 03:33N 28°09' W 015°24'0 0.0
2015-Jul-03 02:21N 28°09' W 015°24'0 0.0
2015-Jul-03 01:27N 28°09' W 015°24'0 0.0
2015-Jul-03 00:27N 28°09' W 015°24'0 0.0
2015-Jul-02 23:27N 28°09' W 015°24'0 0.0
2015-Jul-02 22:27N 28°09' W 015°24'0 0.0
2015-Jul-02 21:27N 28°09' W 015°24'1 0.8
2015-Jul-02 20:33N 28°09' W 015°24'10 9.6
2015-Jul-02 19:33N 27°60' W 015°20'8 0.7
2015-Jul-02 09:07N 27°52' W 015°20'611.4
2015-Jul-02 08:33N 27°58' W 015°19'1110.6
2015-Jul-02 07:33N 28°08' W 015°23'1 1.3
2015-Jul-02 06:27N 28°09' W 015°24'0 0.0
2015-Jul-02 05:30N 28°09' W 015°24'0 0.0
2015-Jul-02 04:33N 28°09' W 015°24'0 0.0
2015-Jul-02 03:33N 28°09' W 015°24'0 0.0
2015-Jul-02 02:33N 28°09' W 015°24'0 0.0
2015-Jul-02 01:33N 28°09' W 015°24'0 0.0
2015-Jul-02 00:33N 28°09' W 015°24'0 0.0
2015-Jul-01 23:33N 28°09' W 015°24'0 0.0
2015-Jul-01 22:33N 28°09' W 015°24'0 0.0
2015-Jul-01 21:18N 28°09' W 015°24'0 0.0
2015-Jul-01 20:24N 28°09' W 015°24'0 0.0
2015-Jul-01 19:27N 28°09' W 015°24'0 0.0
2015-Jul-01 18:27N 28°09' W 015°24'0 0.0
2015-Jul-01 17:27N 28°09' W 015°24'0 0.0
2015-Jul-01 16:27N 28°09' W 015°24'0 0.0
2015-Jul-01 15:27N 28°09' W 015°24'0 0.0
2015-Jul-01 14:33N 28°09' W 015°24'0 0.0
2015-Jul-01 13:33N 28°09' W 015°24'0 0.0
2015-Jul-01 12:33N 28°09' W 015°24'0 0.0
2015-Jul-01 11:30N 28°09' W 015°24'0 0.0
2015-Jul-01 10:33N 28°09' W 015°24'0 0.0
2015-Jul-01 09:33N 28°09' W 015°24'0 0.0
2015-Jul-01 08:33N 28°09' W 015°24'0 0.0
2015-Jul-01 07:24N 28°09' W 015°24'0 0.0
2015-Jul-01 06:27N 28°09' W 015°24'0 0.0
2015-Jul-01 05:27N 28°09' W 015°24'0 0.0
2015-Jul-01 04:27N 28°09' W 015°24'0 0.0
2015-Jul-01 03:27N 28°09' W 015°24'0 0.0
2015-Jul-01 02:27N 28°09' W 015°24'0 0.0
2015-Jul-01 01:30N 28°09' W 015°24'0 0.0
2015-Jul-01 00:33N 28°09' W 015°24'0 0.0
2015-Jun-30 23:33N 28°09' W 015°24'0 0.0
2015-Jun-30 22:18N 28°09' W 015°24'0 0.0
2015-Jun-30 21:33N 28°09' W 015°24'0 0.0
2015-Jun-30 20:33N 28°09' W 015°24'0 0.0
2015-Jun-30 19:33N 28°09' W 015°24'0 0.0
2015-Jun-30 18:33N 28°09' W 015°24'0 0.0
2015-Jun-30 17:33N 28°09' W 015°24'0 0.0
2015-Jun-30 16:27N 28°09' W 015°24'0 0.0
2015-Jun-30 15:27N 28°09' W 015°24'0 0.0
2015-Jun-30 14:33N 28°09' W 015°24'1 1.5
2015-Jun-30 13:33N 28°08' W 015°23'8 7.9
2015-Jun-30 12:33N 28°00' W 015°20'  
2015-Jun-26 12:33N 27°54' W 015°21'  

Dump ship's entire track history